Time;durP1;ratioP1;P1;durP2;ratioP2;P2;SDS_P1;SDS_P2;PMS_P1;PMS_P2;Temp;Humidity;BMP_temperature;BMP_pressure;BME280_temperature;BME280_humidity;BME280_pressure;Samples;Min_cycle;Max_cycle;Signal;HPM_P1;HPM_P2
2023/05/10 00:01:11;;;;;;;7.37;6.63;;;14.60;53.80;;;;;;5074243;28;20791;-68
2023/05/10 00:03:39;;;;;;;6.20;5.60;;;14.50;54.40;;;;;;5074044;28;20949;-68
2023/05/10 00:06:06;;;;;;;6.90;6.20;;;14.50;55.10;;;;;;5074374;28;20950;-68
2023/05/10 00:08:33;;;;;;;8.90;6.33;;;14.50;55.70;;;;;;5073956;28;20468;-68
2023/05/10 00:11:00;;;;;;;8.00;5.57;;;14.40;56.30;;;;;;5074331;28;20468;-69
2023/05/10 00:13:27;;;;;;;8.37;5.77;;;14.40;56.90;;;;;;5073973;28;20552;-68
2023/05/10 00:15:54;;;;;;;6.77;6.07;;;14.50;57.50;;;;;;5074431;28;20465;-68
2023/05/10 00:18:21;;;;;;;6.60;5.90;;;14.50;57.70;;;;;;5074046;28;20465;-68
2023/05/10 00:20:49;;;;;;;6.20;5.60;;;14.50;58.30;;;;;;5073824;28;20955;-70
2023/05/10 00:23:16;;;;;;;9.63;6.30;;;14.50;58.00;;;;;;5073769;28;20934;-68
2023/05/10 00:25:43;;;;;;;7.27;5.60;;;14.50;58.20;;;;;;5073771;28;20461;-68
2023/05/10 00:28:10;;;;;;;7.73;5.70;;;14.50;58.40;;;;;;5074139;28;20493;-68
2023/05/10 00:30:37;;;;;;;6.60;5.90;;;14.50;58.70;;;;;;5074635;28;20477;-68
2023/05/10 00:33:04;;;;;;;6.03;5.30;;;14.50;58.80;;;;;;5077747;28;20470;-68
2023/05/10 00:35:30;;;;;;;6.63;6.00;;;14.50;59.30;;;;;;5078108;28;20797;-68
2023/05/10 00:37:59;;;;;;;5.93;5.43;;;14.50;59.60;;;;;;5077858;28;20492;-68
2023/05/10 00:40:26;;;;;;;6.27;5.67;;;14.40;60.00;;;;;;5077934;28;20849;-67
2023/05/10 00:42:52;;;;;;;7.17;6.33;;;14.40;60.40;;;;;;5078168;28;20776;-69
2023/05/10 00:45:19;;;;;;;6.13;5.53;;;14.40;60.60;;;;;;5078039;28;20464;-68
2023/05/10 00:47:46;;;;;;;9.50;5.90;;;14.40;60.60;;;;;;5077906;28;20465;-68
2023/05/10 00:50:14;;;;;;;8.83;6.27;;;14.40;61.30;;;;;;5077645;28;20464;-67
2023/05/10 00:52:41;;;;;;;7.80;6.37;;;14.30;62.10;;;;;;5077656;28;20843;-68
2023/05/10 00:55:12;;;;;;;6.80;6.13;;;14.30;62.80;;;;;;5077720;28;20544;-68
2023/05/10 00:57:39;;;;;;;7.43;5.90;;;14.20;63.60;;;;;;5077590;28;20899;-68
2023/05/10 01:00:07;;;;;;;8.70;6.30;;;14.20;64.50;;;;;;5077560;28;20911;-68
2023/05/10 01:02:35;;;;;;;6.80;6.10;;;14.20;65.00;;;;;;5077352;28;20510;-68
2023/05/10 01:05:05;;;;;;;6.60;5.90;;;14.20;65.40;;;;;;5077464;28;20453;-68
2023/05/10 01:07:31;;;;;;;6.90;6.23;;;14.10;66.00;;;;;;5077195;28;20458;-67
2023/05/10 01:09:58;;;;;;;6.70;6.00;;;14.10;67.00;;;;;;5077821;28;20464;-68
2023/05/10 01:12:27;;;;;;;7.60;6.67;;;14.00;67.70;;;;;;5077116;28;20901;-68
2023/05/10 01:14:55;;;;;;;7.20;5.90;;;14.00;68.90;;;;;;5077156;28;20453;-68
2023/05/10 01:17:22;;;;;;;6.90;6.30;;;13.90;70.10;;;;;;5077284;28;20493;-68
2023/05/10 01:19:50;;;;;;;6.63;6.00;;;13.90;71.20;;;;;;5077150;28;20466;-67
2023/05/10 01:22:35;;;;;;;6.70;6.00;;;13.90;71.40;;;;;;5077253;28;20478;-67
2023/05/10 01:25:20;;;;;;;5.70;5.20;;;14.00;72.00;;;;;;5077112;28;20439;-68
2023/05/10 01:28:16;;;;;;;6.77;5.90;;;13.90;72.70;;;;;;5077559;28;20907;-68
2023/05/10 01:31:09;;;;;;;7.50;5.70;;;13.90;73.70;;;;;;5077616;28;20453;-68
2023/05/10 01:33:42;;;;;;;6.50;5.90;;;13.90;74.40;;;;;;5077026;28;20470;-68
2023/05/10 01:36:17;;;;;;;7.10;6.33;;;13.80;75.90;;;;;;5077035;28;20442;-67
2023/05/10 01:38:50;;;;;;;6.37;5.77;;;13.80;76.80;;;;;;5076904;28;20489;-68
2023/05/10 01:41:20;;;;;;;6.53;5.93;;;13.80;77.10;;;;;;5077516;28;20466;-67
2023/05/10 01:43:55;;;;;;;5.50;5.00;;;13.70;77.90;;;;;;5076149;28;20484;-67
2023/05/10 01:46:28;;;;;;;6.00;5.50;;;13.70;79.30;;;;;;5076974;28;20464;-68
2023/05/10 01:48:58;;;;;;;6.80;6.03;;;13.70;79.80;;;;;;5076853;28;20453;-68
2023/05/10 01:51:29;;;;;;;7.90;6.77;;;13.60;81.60;;;;;;5077238;28;20434;-68
2023/05/10 01:54:01;;;;;;;6.47;5.87;;;13.60;82.50;;;;;;5077344;28;20718;-68
2023/05/10 01:56:31;;;;;;;9.60;5.53;;;13.50;83.50;;;;;;5077220;28;20453;-68
2023/05/10 01:58:59;;;;;;;6.83;6.30;;;13.50;84.80;;;;;;5077031;28;20553;-68
2023/05/10 02:01:28;;;;;;;6.50;5.63;;;13.40;86.30;;;;;;5077230;28;20474;-67
2023/05/10 02:03:58;;;;;;;7.37;6.60;;;13.30;88.20;;;;;;5076623;28;20458;-68
2023/05/10 02:06:26;;;;;;;7.23;6.10;;;13.30;89.70;;;;;;5077068;28;20454;-67
2023/05/10 02:08:54;;;;;;;6.87;6.13;;;13.30;90.70;;;;;;5076991;28;20944;-68
2023/05/10 02:11:22;;;;;;;7.90;6.30;;;13.30;90.70;;;;;;5076645;28;20460;-67
2023/05/10 02:13:51;;;;;;;6.93;6.17;;;13.30;91.30;;;;;;5076829;28;20454;-68
2023/05/10 02:16:23;;;;;;;6.43;5.80;;;13.30;91.90;;;;;;5076854;28;20810;-68
2023/05/10 02:18:52;;;;;;;6.93;6.30;;;13.30;91.60;;;;;;5076451;28;20446;-68
2023/05/10 02:21:21;;;;;;;6.60;5.90;;;13.20;92.20;;;;;;5076665;28;20517;-67
2023/05/10 02:23:49;;;;;;;6.40;5.90;;;13.20;92.90;;;;;;5076273;28;20465;-68
2023/05/10 02:26:18;;;;;;;6.90;5.63;;;13.20;93.40;;;;;;5075930;28;20461;-68
2023/05/10 02:28:45;;;;;;;6.87;6.17;;;13.10;93.60;;;;;;5076257;28;20545;-68
2023/05/10 02:31:13;;;;;;;6.27;5.67;;;13.10;94.20;;;;;;5076131;28;20541;-68
2023/05/10 02:33:41;;;;;;;6.17;5.47;;;13.10;95.10;;;;;;5076050;28;20460;-68
2023/05/10 02:36:10;;;;;;;6.60;5.87;;;13.10;94.90;;;;;;5075858;28;20549;-68
2023/05/10 02:38:39;;;;;;;6.40;5.67;;;13.00;95.40;;;;;;5075528;28;20481;-68
2023/05/10 02:41:08;;;;;;;8.37;5.73;;;13.00;96.20;;;;;;5075656;28;20454;-68
2023/05/10 02:43:37;;;;;;;6.17;5.57;;;13.00;96.40;;;;;;5075605;28;20454;-68
2023/05/10 02:46:04;;;;;;;9.73;5.87;;;13.00;97.10;;;;;;5075700;28;20469;-67
2023/05/10 02:48:31;;;;;;;6.80;5.77;;;12.90;97.00;;;;;;5075671;28;20499;-68
2023/05/10 02:51:05;;;;;;;6.57;5.80;;;12.90;97.90;;;;;;5075465;28;20454;-68
2023/05/10 02:53:34;;;;;;;6.27;5.60;;;12.90;98.40;;;;;;5075301;28;20563;-67
2023/05/10 02:56:07;;;;;;;7.93;6.47;;;12.80;98.70;;;;;;5075107;28;20464;-67
2023/05/10 02:58:34;;;;;;;6.30;5.70;;;12.70;99.20;;;;;;5075399;28;20450;-68
2023/05/10 03:01:01;;;;;;;6.73;5.80;;;12.70;99.60;;;;;;5074971;28;20464;-68
2023/05/10 03:03:28;;;;;;;6.10;5.50;;;12.70;99.90;;;;;;5074853;28;20966;-68
2023/05/10 03:05:56;;;;;;;6.80;5.80;;;12.70;99.90;;;;;;5075283;28;20461;-68
2023/05/10 03:08:23;;;;;;;6.70;6.03;;;12.70;99.90;;;;;;5074817;28;20520;-68
2023/05/10 03:11:00;;;;;;;6.00;5.37;;;12.70;99.90;;;;;;5075132;28;20744;-68
2023/05/10 03:13:37;;;;;;;8.90;5.80;;;12.70;99.90;;;;;;5075331;28;20449;-68
2023/05/10 03:16:09;;;;;;;6.00;5.40;;;12.70;99.90;;;;;;5075000;28;20534;-68
2023/05/10 03:18:44;;;;;;;9.13;6.27;;;12.70;99.90;;;;;;5075422;28;20443;-68
2023/05/10 03:21:15;;;;;;;9.10;5.40;;;12.70;99.90;;;;;;5074626;28;20537;-68
2023/05/10 03:23:44;;;;;;;7.93;5.27;;;12.60;99.90;;;;;;5075028;28;20478;-68
2023/05/10 03:26:18;;;;;;;7.30;5.80;;;12.60;99.90;;;;;;5074649;28;20454;-68
2023/05/10 03:28:48;;;;;;;8.77;6.50;;;12.60;99.90;;;;;;5074710;28;20438;-67
2023/05/10 03:31:15;;;;;;;5.67;5.17;;;12.60;99.90;;;;;;5075019;28;20910;-67
2023/05/10 03:33:48;;;;;;;5.93;5.33;;;12.50;99.90;;;;;;5075549;28;20465;-68
2023/05/10 03:36:15;;;;;;;9.93;6.10;;;12.60;99.90;;;;;;5078694;28;20454;-68
2023/05/10 03:38:41;;;;;;;6.23;5.63;;;12.50;99.90;;;;;;5077918;28;20989;-68
2023/05/10 03:41:08;;;;;;;8.53;6.60;;;12.50;99.90;;;;;;5076699;28;20458;-68
2023/05/10 03:43:35;;;;;;;6.10;5.27;;;12.60;99.90;;;;;;5077108;28;20454;-68
2023/05/10 03:46:04;;;;;;;7.07;5.67;;;12.50;99.90;;;;;;5076162;28;20522;-68
2023/05/10 03:48:33;;;;;;;8.90;6.00;;;12.50;99.90;;;;;;5076235;28;20460;-67
2023/05/10 03:51:00;;;;;;;9.23;6.57;;;12.50;99.90;;;;;;5076164;28;20466;-67
2023/05/10 03:53:27;;;;;;;10.10;5.43;;;12.50;99.90;;;;;;5075653;28;20446;-67
2023/05/10 03:55:54;;;;;;;9.37;5.67;;;12.50;99.90;;;;;;5075048;28;20458;-67
2023/05/10 03:58:21;;;;;;;8.07;4.97;;;12.50;99.90;;;;;;5075318;28;20936;-68
2023/05/10 04:00:48;;;;;;;5.93;5.40;;;12.50;99.90;;;;;;5075322;28;20782;-68
2023/05/10 04:03:16;;;;;;;5.67;5.17;;;12.40;99.90;;;;;;5074356;28;20486;-67
2023/05/10 04:05:43;;;;;;;7.33;5.30;;;12.50;99.90;;;;;;5074043;28;20473;-68
2023/05/10 04:08:10;;;;;;;7.37;5.70;;;12.50;99.90;;;;;;5074321;28;20466;-68
2023/05/10 04:10:37;;;;;;;6.80;5.93;;;12.40;99.90;;;;;;5074642;28;20549;-68
2023/05/10 04:13:04;;;;;;;5.47;4.73;;;12.40;99.90;;;;;;5074815;28;20785;-67
2023/05/10 04:15:31;;;;;;;9.77;4.67;;;12.40;99.90;;;;;;5074542;28;20527;-67
2023/05/10 04:17:58;;;;;;;6.77;5.53;;;12.50;99.90;;;;;;5074318;28;20485;-67
2023/05/10 04:20:26;;;;;;;5.83;5.33;;;12.50;99.90;;;;;;5074529;28;20531;-69
2023/05/10 04:22:53;;;;;;;6.50;5.60;;;12.50;99.90;;;;;;5074129;28;20478;-68
2023/05/10 04:25:20;;;;;;;7.40;5.10;;;12.40;99.90;;;;;;5074087;28;20480;-68
2023/05/10 04:27:47;;;;;;;6.90;5.80;;;12.50;99.90;;;;;;5074150;28;20717;-68
2023/05/10 04:30:14;;;;;;;8.17;6.00;;;12.50;99.90;;;;;;5074339;28;20548;-68
2023/05/10 04:32:41;;;;;;;8.07;5.60;;;12.50;99.90;;;;;;5074313;28;20882;-68
2023/05/10 04:35:09;;;;;;;7.73;6.10;;;12.50;99.90;;;;;;5073941;28;20807;-68
2023/05/10 04:37:38;;;;;;;7.23;5.23;;;12.50;99.90;;;;;;5074142;28;20546;-68
2023/05/10 04:40:06;;;;;;;5.57;5.07;;;12.50;99.90;;;;;;5074304;28;20454;-68
2023/05/10 04:42:33;;;;;;;6.33;5.57;;;12.60;99.90;;;;;;5074071;28;20811;-68
2023/05/10 04:44:59;;;;;;;5.13;4.73;;;12.50;99.90;;;;;;5074640;28;20918;-67
2023/05/10 04:47:26;;;;;;;6.33;5.67;;;12.50;99.90;;;;;;5073898;28;20489;-69
2023/05/10 04:49:53;;;;;;;7.90;5.77;;;12.40;99.90;;;;;;5073946;28;20464;-68
2023/05/10 04:52:20;;;;;;;5.83;5.23;;;12.40;99.90;;;;;;5073871;28;20454;-69
2023/05/10 04:54:48;;;;;;;7.13;5.07;;;12.40;99.90;;;;;;5073999;28;20454;-67
2023/05/10 04:57:15;;;;;;;5.30;4.80;;;12.50;99.90;;;;;;5073796;28;20454;-69
2023/05/10 04:59:42;;;;;;;6.00;4.83;;;12.50;99.90;;;;;;5074002;28;20458;-68
2023/05/10 05:02:09;;;;;;;8.83;6.40;;;12.50;99.90;;;;;;5073814;28;20482;-68
2023/05/10 05:04:36;;;;;;;5.97;5.37;;;12.50;99.90;;;;;;5073903;28;20779;-68
2023/05/10 05:07:03;;;;;;;11.63;5.60;;;12.50;99.90;;;;;;5073715;28;20549;-68
2023/05/10 05:09:31;;;;;;;10.67;8.37;;;12.50;99.90;;;;;;5073611;28;20566;-68
2023/05/10 05:12:00;;;;;;;7.80;7.00;;;12.60;99.90;;;;;;5073815;28;20450;-68
2023/05/10 05:14:27;;;;;;;6.30;4.87;;;12.70;99.90;;;;;;5074024;28;20830;-68
2023/05/10 05:16:54;;;;;;;7.13;5.30;;;12.70;99.90;;;;;;5073943;28;20502;-68
2023/05/10 05:19:21;;;;;;;4.90;4.50;;;12.80;99.90;;;;;;5076460;28;20548;-67
2023/05/10 05:21:48;;;;;;;5.17;4.30;;;12.80;99.90;;;;;;5077497;28;20466;-68
2023/05/10 05:24:14;;;;;;;6.40;4.73;;;12.90;99.90;;;;;;5077271;28;20823;-68
2023/05/10 05:26:41;;;;;;;5.43;4.83;;;12.90;99.90;;;;;;5077274;28;20462;-68
2023/05/10 05:29:10;;;;;;;4.60;4.20;;;13.00;99.90;;;;;;5077493;28;20836;-68
2023/05/10 05:31:36;;;;;;;8.00;5.80;;;13.00;99.90;;;;;;5077540;28;20519;-68
2023/05/10 05:34:03;;;;;;;8.30;4.73;;;13.00;99.90;;;;;;5077367;28;20515;-67
2023/05/10 05:36:31;;;;;;;8.73;5.10;;;13.00;99.90;;;;;;5077154;28;20527;-68
2023/05/10 05:38:58;;;;;;;6.93;4.40;;;13.10;99.90;;;;;;5076961;28;20482;-69
2023/05/10 05:41:25;;;;;;;5.47;4.60;;;13.10;99.90;;;;;;5076558;28;20548;-68
2023/05/10 05:43:52;;;;;;;5.77;4.90;;;13.10;99.90;;;;;;5076555;28;20575;-68
2023/05/10 05:46:20;;;;;;;4.53;4.13;;;13.20;99.90;;;;;;5076496;28;20511;-68
2023/05/10 05:48:47;;;;;;;6.93;5.43;;;13.30;99.90;;;;;;5076704;28;20454;-68
2023/05/10 05:51:14;;;;;;;8.80;4.73;;;13.30;99.90;;;;;;5076725;28;20486;-67
2023/05/10 05:53:41;;;;;;;13.57;4.60;;;13.40;99.90;;;;;;5076612;28;20549;-68
2023/05/10 05:56:09;;;;;;;5.77;4.60;;;13.50;99.90;;;;;;5076479;28;20465;-68
2023/05/10 05:58:36;;;;;;;4.60;4.10;;;13.60;99.90;;;;;;5076133;28;20458;-68
2023/05/10 06:01:03;;;;;;;6.20;4.03;;;13.60;99.90;;;;;;5076717;28;20772;-67
2023/05/10 06:03:31;;;;;;;7.00;3.77;;;13.70;99.90;;;;;;5076656;28;20573;-69
2023/05/10 06:05:58;;;;;;;5.00;4.00;;;13.60;99.90;;;;;;5076542;28;20485;-68
2023/05/10 06:08:25;;;;;;;4.60;3.63;;;13.60;99.90;;;;;;5076610;28;20502;-69
2023/05/10 06:10:52;;;;;;;4.40;4.00;;;13.70;99.90;;;;;;5076509;28;20454;-68
2023/05/10 06:13:19;;;;;;;4.77;3.60;;;13.70;99.90;;;;;;5076472;28;20756;-67
2023/05/10 06:15:46;;;;;;;4.33;3.93;;;13.70;99.90;;;;;;5076401;28;20545;-68
2023/05/10 06:18:13;;;;;;;5.60;3.90;;;13.80;99.90;;;;;;5076001;28;20520;-68
2023/05/10 06:20:42;;;;;;;8.00;3.23;;;13.80;99.90;;;;;;5076225;28;20454;-68
2023/05/10 06:23:09;;;;;;;5.13;3.87;;;13.80;99.90;;;;;;5076426;28;20500;-69
2023/05/10 06:25:36;;;;;;;3.90;3.60;;;13.90;99.90;;;;;;5075850;28;20930;-69
2023/05/10 06:28:02;;;;;;;8.20;3.37;;;14.00;99.90;;;;;;5076695;28;20795;-69
2023/05/10 06:30:29;;;;;;;5.67;3.07;;;14.20;99.90;;;;;;5075583;28;20465;-67
2023/05/10 06:32:56;;;;;;;3.63;3.13;;;14.20;99.90;;;;;;5075708;28;20450;-68
2023/05/10 06:35:23;;;;;;;3.77;3.37;;;14.20;99.90;;;;;;5076260;28;20464;-69
2023/05/10 06:37:52;;;;;;;8.57;3.00;;;14.30;99.90;;;;;;5076449;28;20496;-69
2023/05/10 06:40:19;;;;;;;4.30;3.57;;;14.40;99.90;;;;;;5076013;28;20464;-68
2023/05/10 06:42:46;;;;;;;3.47;2.83;;;14.40;99.90;;;;;;5075488;28;20579;-68
2023/05/10 06:45:14;;;;;;;4.13;3.30;;;14.50;99.90;;;;;;5075311;28;20460;-68
2023/05/10 06:47:41;;;;;;;6.60;3.10;;;14.50;99.90;;;;;;5075231;28;20946;-68
2023/05/10 06:50:09;;;;;;;5.17;3.20;;;14.60;99.90;;;;;;5075658;28;20554;-68
2023/05/10 06:52:36;;;;;;;3.10;2.90;;;14.70;99.90;;;;;;5075600;28;20454;-68
2023/05/10 06:55:05;;;;;;;4.73;3.20;;;14.70;99.90;;;;;;5075559;28;20545;-68
2023/05/10 06:57:32;;;;;;;8.23;4.43;;;14.80;99.90;;;;;;5074920;28;20486;-68
2023/05/10 06:59:59;;;;;;;5.40;3.70;;;14.90;99.90;;;;;;5074911;28;20465;-68
2023/05/10 07:02:26;;;;;;;5.10;2.90;;;14.90;99.90;;;;;;5075145;28;20760;-68
2023/05/10 07:04:53;;;;;;;4.70;3.40;;;14.90;99.90;;;;;;5075238;28;20515;-69
2023/05/10 07:07:20;;;;;;;3.43;3.10;;;15.00;99.90;;;;;;5075272;28;20497;-68
2023/05/10 07:09:48;;;;;;;8.13;6.33;;;15.00;99.90;;;;;;5074803;28;20494;-68
2023/05/10 07:12:16;;;;;;;3.73;3.17;;;15.10;99.90;;;;;;5074692;28;20484;-68
2023/05/10 07:14:43;;;;;;;5.03;3.20;;;15.10;99.90;;;;;;5075048;28;20810;-68
2023/05/10 07:17:10;;;;;;;4.67;3.10;;;15.20;99.90;;;;;;5074444;28;20953;-68
2023/05/10 07:19:37;;;;;;;3.53;3.17;;;15.20;99.90;;;;;;5074860;28;20469;-68
2023/05/10 07:22:04;;;;;;;3.20;2.90;;;15.30;99.90;;;;;;5074495;28;20834;-69
2023/05/10 07:24:31;;;;;;;3.30;2.80;;;15.40;99.90;;;;;;5074837;28;20492;-69
2023/05/10 07:26:58;;;;;;;3.80;2.97;;;15.50;99.90;;;;;;5075034;28;20767;-68
2023/05/10 07:29:26;;;;;;;4.60;3.40;;;15.50;99.90;;;;;;5074578;28;20460;-68
2023/05/10 07:31:53;;;;;;;5.40;3.60;;;15.50;99.50;;;;;;5074499;28;20454;-67
2023/05/10 07:34:20;;;;;;;5.30;3.17;;;15.60;99.50;;;;;;5075347;28;20460;-69
2023/05/10 07:36:47;;;;;;;4.40;2.97;;;15.60;99.70;;;;;;5074446;28;20458;-68
2023/05/10 07:39:14;;;;;;;8.83;3.20;;;15.70;99.40;;;;;;5075132;28;21030;-68
2023/05/10 07:41:40;;;;;;;10.20;3.50;;;15.70;99.20;;;;;;5074112;28;20462;-69
2023/05/10 07:44:07;;;;;;;17.03;3.90;;;15.80;99.30;;;;;;5074352;28;20799;-67
2023/05/10 07:46:35;;;;;;;4.60;3.47;;;15.80;99.60;;;;;;5074431;28;20899;-68
2023/05/10 07:49:02;;;;;;;3.50;3.20;;;15.90;99.30;;;;;;5074412;28;20917;-68
2023/05/10 07:51:29;;;;;;;3.80;3.50;;;16.10;99.40;;;;;;5074316;28;20454;-67
2023/05/10 07:53:57;;;;;;;3.00;2.70;;;16.20;98.50;;;;;;5074050;28;20450;-68
2023/05/10 07:56:27;;;;;;;7.20;3.17;;;16.30;98.80;;;;;;5074413;28;20454;-67
2023/05/10 07:58:54;;;;;;;5.33;3.37;;;16.40;98.10;;;;;;5074195;28;20469;-68
2023/05/10 08:01:21;;;;;;;3.27;2.83;;;16.50;97.40;;;;;;5074321;28;20484;-68
2023/05/10 08:03:50;;;;;;;6.70;3.20;;;16.60;97.50;;;;;;5074335;28;20488;-68
2023/05/10 08:06:18;;;;;;;6.90;3.57;;;16.70;96.60;;;;;;5074595;28;20791;-68
2023/05/10 08:08:50;;;;;;;3.97;3.07;;;16.70;96.00;;;;;;5074754;28;20458;-68
2023/05/10 08:11:17;;;;;;;3.70;3.13;;;16.80;96.40;;;;;;5074809;28;20496;-69
2023/05/10 08:13:44;;;;;;;4.40;3.20;;;16.90;96.70;;;;;;5074344;28;20450;-66
2023/05/10 08:16:11;;;;;;;3.63;3.20;;;17.00;95.70;;;;;;5074325;28;20455;-69
2023/05/10 08:18:38;;;;;;;3.20;2.90;;;17.00;94.80;;;;;;5073933;28;20454;-68
2023/05/10 08:21:06;;;;;;;6.50;3.10;;;17.10;94.90;;;;;;5074318;28;20486;-68
2023/05/10 08:23:33;;;;;;;4.03;2.97;;;17.10;95.10;;;;;;5074330;28;20493;-69
2023/05/10 08:26:00;;;;;;;3.03;2.80;;;17.20;94.00;;;;;;5073936;28;20458;-68
2023/05/10 08:28:28;;;;;;;4.93;3.20;;;17.20;94.80;;;;;;5074105;28;20453;-67
2023/05/10 08:30:55;;;;;;;2.97;2.67;;;17.30;94.40;;;;;;5074210;28;20462;-67
2023/05/10 08:33:21;;;;;;;5.97;3.53;;;17.40;93.90;;;;;;5073865;28;20458;-67
2023/05/10 08:35:48;;;;;;;3.37;3.07;;;17.50;93.90;;;;;;5073274;28;20454;-67
2023/05/10 08:38:16;;;;;;;3.67;2.77;;;17.50;92.30;;;;;;5073832;28;20939;-68
2023/05/10 08:40:45;;;;;;;4.00;2.77;;;17.60;92.00;;;;;;5074061;28;20486;-67
2023/05/10 08:43:14;;;;;;;3.40;3.10;;;17.70;92.10;;;;;;5073636;28;20954;-68
2023/05/10 08:45:42;;;;;;;3.77;2.83;;;17.80;91.80;;;;;;5073973;28;20842;-68
2023/05/10 08:48:11;;;;;;;7.20;2.63;;;17.80;91.20;;;;;;5073538;28;20459;-68
2023/05/10 08:50:38;;;;;;;3.27;2.83;;;17.90;90.50;;;;;;5073383;28;20512;-68
2023/05/10 08:53:07;;;;;;;5.20;2.97;;;17.90;90.40;;;;;;5076038;28;20450;-68
2023/05/10 08:55:38;;;;;;;3.37;2.90;;;17.80;88.10;;;;;;5077230;28;20933;-68
2023/05/10 08:58:05;;;;;;;3.60;3.03;;;17.90;90.50;;;;;;5077325;28;20504;-68
2023/05/10 09:00:32;;;;;;;3.93;2.97;;;18.00;90.00;;;;;;5077404;28;20549;-68
2023/05/10 09:03:00;;;;;;;2.77;2.57;;;18.00;87.60;;;;;;5077411;28;20457;-68
2023/05/10 09:05:27;;;;;;;2.77;2.57;;;18.10;86.50;;;;;;5077125;28;20454;-68
2023/05/10 09:07:54;;;;;;;4.10;2.80;;;18.20;85.50;;;;;;5077436;28;20464;-68
2023/05/10 09:10:21;;;;;;;3.10;2.77;;;18.20;82.90;;;;;;5077278;28;20516;-68
2023/05/10 09:12:50;;;;;;;6.60;3.17;;;18.30;81.80;;;;;;5077504;28;20537;-69
2023/05/10 09:15:19;;;;;;;3.80;2.97;;;18.40;82.90;;;;;;5077208;28;20930;-68
2023/05/10 09:17:46;;;;;;;5.00;2.90;;;18.40;83.20;;;;;;5077759;28;20488;-68
2023/05/10 09:20:13;;;;;;;5.10;2.97;;;18.40;80.00;;;;;;5077495;28;20450;-68
2023/05/10 09:22:40;;;;;;;3.83;3.00;;;18.40;81.20;;;;;;5077054;28;20458;-68
2023/05/10 09:25:09;;;;;;;4.67;3.07;;;18.50;80.80;;;;;;5077139;28;20482;-68
2023/05/10 09:27:36;;;;;;;5.40;2.57;;;18.60;81.00;;;;;;5076948;28;20958;-68
2023/05/10 09:30:06;;;;;;;3.30;3.00;;;18.70;81.20;;;;;;5077225;28;20918;-69
2023/05/10 09:32:40;;;;;;;7.90;2.77;;;18.70;78.50;;;;;;5076924;28;20461;-68
2023/05/10 09:35:08;;;;;;;3.83;2.90;;;18.80;78.30;;;;;;5077062;28;20541;-68
2023/05/10 09:37:36;;;;;;;3.63;2.83;;;18.90;77.40;;;;;;5077103;28;20469;-69
2023/05/10 09:40:07;;;;;;;5.17;3.40;;;18.90;76.40;;;;;;5076902;28;20534;-69
2023/05/10 09:42:34;;;;;;;3.40;2.90;;;19.00;75.50;;;;;;5076843;28;20438;-68
2023/05/10 09:45:07;;;;;;;9.33;3.73;;;19.00;75.80;;;;;;5076634;28;20482;-68
2023/05/10 09:47:34;;;;;;;2.63;2.43;;;19.00;75.10;;;;;;5076854;28;20442;-68
2023/05/10 09:50:04;;;;;;;3.40;2.67;;;19.10;75.20;;;;;;5076532;28;20903;-68
2023/05/10 09:52:31;;;;;;;3.53;3.13;;;19.20;73.80;;;;;;5076675;28;20782;-68
2023/05/10 09:54:58;;;;;;;2.70;2.50;;;19.30;72.10;;;;;;5076446;28;20754;-68
2023/05/10 09:57:26;;;;;;;4.53;2.80;;;19.30;70.90;;;;;;5075996;28;20930;-68
2023/05/10 09:59:55;;;;;;;3.50;2.83;;;19.30;72.00;;;;;;5075886;28;20561;-68
2023/05/10 10:02:29;;;;;;;8.20;3.03;;;19.30;72.30;;;;;;5076161;28;20544;-68
2023/05/10 10:04:57;;;;;;;3.40;2.80;;;19.40;72.60;;;;;;5075210;28;20465;-67
2023/05/10 10:07:26;;;;;;;3.40;2.93;;;19.40;72.30;;;;;;5076363;28;20458;-67
2023/05/10 10:09:53;;;;;;;4.60;2.90;;;19.50;71.60;;;;;;5076205;28;20458;-68
2023/05/10 10:12:20;;;;;;;3.80;2.90;;;19.60;71.20;;;;;;5075834;28;20549;-68
2023/05/10 10:14:49;;;;;;;2.90;2.10;;;19.70;69.80;;;;;;5075633;28;20450;-68
2023/05/10 10:17:16;;;;;;;4.53;3.40;;;19.80;69.00;;;;;;5076024;28;20454;-69
2023/05/10 10:19:46;;;;;;;2.73;2.50;;;19.90;67.00;;;;;;5075591;28;20481;-68
2023/05/10 10:22:13;;;;;;;4.30;2.80;;;20.00;66.60;;;;;;5075782;28;20541;-68
2023/05/10 10:24:40;;;;;;;5.90;3.50;;;20.00;66.60;;;;;;5075730;28;20474;-68
2023/05/10 10:27:20;;;;;;;7.00;2.97;;;20.10;66.40;;;;;;5075704;28;20481;-68
2023/05/10 10:29:59;;;;;;;3.30;2.67;;;20.10;66.00;;;;;;5075470;28;20503;-68
2023/05/10 10:32:36;;;;;;;3.47;3.17;;;20.20;66.30;;;;;;5075157;28;20886;-68
2023/05/10 10:35:05;;;;;;;5.90;2.80;;;20.30;66.60;;;;;;5075446;28;20499;-67
2023/05/10 10:37:45;;;;;;;4.43;3.00;;;20.40;66.10;;;;;;5075145;28;20538;-68
2023/05/10 10:40:26;;;;;;;4.60;3.50;;;20.50;63.70;;;;;;5075233;28;20452;-68
2023/05/10 10:42:53;;;;;;;6.00;2.53;;;20.50;62.20;;;;;;5075361;28;20926;-68
2023/05/10 10:45:22;;;;;;;4.40;2.90;;;20.50;62.20;;;;;;5075481;28;20478;-69
2023/05/10 10:47:49;;;;;;;4.10;2.90;;;20.60;62.00;;;;;;5075876;28;20794;-69
2023/05/10 10:50:17;;;;;;;3.43;2.67;;;20.60;60.40;;;;;;5075105;28;20458;-69
2023/05/10 10:52:45;;;;;;;6.80;2.60;;;20.70;60.80;;;;;;5075455;28;20454;-69
2023/05/10 10:55:14;;;;;;;3.50;3.20;;;20.80;61.10;;;;;;5074953;28;20454;-68
2023/05/10 10:57:46;;;;;;;4.90;2.80;;;20.80;59.30;;;;;;5074736;28;20460;-68
2023/05/10 11:00:27;;;;;;;4.90;2.70;;;20.80;60.20;;;;;;5074872;28;20505;-68
2023/05/10 11:02:57;;;;;;;3.87;3.20;;;21.00;59.90;;;;;;5074941;28;20438;-68
2023/05/10 11:05:43;;;;;;;9.17;2.70;;;21.10;58.80;;;;;;5075115;28;20967;-68
2023/05/10 11:08:19;;;;;;;3.90;3.00;;;21.20;58.70;;;;;;5075049;28;20435;-68
2023/05/10 11:10:54;;;;;;;5.40;3.30;;;21.30;57.50;;;;;;5074610;28;20461;-68
2023/05/10 11:13:32;;;;;;;6.47;4.80;;;21.40;57.50;;;;;;5074666;28;20536;-69
2023/05/10 11:16:00;;;;;;;4.10;2.90;;;21.80;58.00;;;;;;5074732;28;20544;-70
2023/05/10 11:18:28;;;;;;;2.80;2.60;;;22.60;57.30;;;;;;5074326;28;20934;-68
2023/05/10 11:21:00;;;;;;;3.73;3.37;;;23.90;55.00;;;;;;5074931;28;20480;-68
2023/05/10 11:23:32;;;;;;;5.27;2.60;;;25.40;50.70;;;;;;5074661;28;20524;-68
2023/05/10 11:26:00;;;;;;;4.50;3.10;;;26.90;46.50;;;;;;5074127;28;20450;-68
2023/05/10 11:28:28;;;;;;;3.40;2.67;;;28.20;41.90;;;;;;5074207;28;20933;-68
2023/05/10 11:30:55;;;;;;;3.43;2.83;;;29.50;39.30;;;;;;5074757;28;20467;-68
2023/05/10 11:33:22;;;;;;;3.30;2.67;;;30.60;32.20;;;;;;5074296;28;20458;-68
2023/05/10 11:35:49;;;;;;;4.17;2.67;;;31.10;29.20;;;;;;5074754;28;20462;-69
2023/05/10 11:38:17;;;;;;;4.83;2.70;;;31.40;27.70;;;;;;5074410;28;20589;-69
2023/05/10 11:40:44;;;;;;;3.87;3.57;;;30.80;26.20;;;;;;5074514;28;20807;-68
2023/05/10 11:43:12;;;;;;;5.63;2.70;;;31.10;26.90;;;;;;5074269;28;20488;-68
2023/05/10 11:45:39;;;;;;;7.80;2.60;;;31.70;26.70;;;;;;5075044;28;20482;-68
2023/05/10 11:48:06;;;;;;;2.90;2.60;;;32.40;24.70;;;;;;5074737;28;20458;-67
2023/05/10 11:50:33;;;;;;;3.10;2.77;;;32.70;24.30;;;;;;5074446;28;20785;-67
2023/05/10 11:53:00;;;;;;;5.10;2.50;;;33.20;24.00;;;;;;5074465;28;20454;-68
2023/05/10 11:55:30;;;;;;;4.40;2.83;;;33.90;22.80;;;;;;5074339;28;20795;-68
2023/05/10 11:58:00;;;;;;;4.83;2.73;;;34.50;21.40;;;;;;5074704;28;20842;-68
2023/05/10 12:00:27;;;;;;;3.03;2.73;;;35.10;21.10;;;;;;5074498;28;20442;-68
2023/05/10 12:02:54;;;;;;;2.77;2.50;;;35.60;20.00;;;;;;5074828;28;20537;-68
2023/05/10 12:05:22;;;;;;;8.10;2.90;;;35.50;17.80;;;;;;5073912;28;20569;-69
2023/05/10 12:07:48;;;;;;;3.00;2.37;;;34.20;17.20;;;;;;5074478;28;20454;-69
2023/05/10 12:10:17;;;;;;;6.73;2.60;;;34.00;18.40;;;;;;5074168;28;20535;-69
2023/05/10 12:12:47;;;;;;;6.13;3.70;;;33.90;18.30;;;;;;5074423;28;20925;-68
2023/05/10 12:15:19;;;;;;;4.80;3.13;;;33.90;18.70;;;;;;5074240;28;20866;-68
2023/05/10 12:17:47;;;;;;;5.60;2.37;;;34.40;18.40;;;;;;5074144;28;20477;-69
2023/05/10 12:20:15;;;;;;;8.17;2.93;;;34.80;18.10;;;;;;5074199;28;20454;-68
2023/05/10 12:22:44;;;;;;;7.90;2.80;;;35.10;17.20;;;;;;5074116;28;20464;-69
2023/05/10 12:25:11;;;;;;;4.53;2.30;;;35.50;17.60;;;;;;5074439;28;20842;-68
2023/05/10 12:27:38;;;;;;;3.20;2.90;;;35.70;16.10;;;;;;5077704;28;20836;-69
2023/05/10 12:30:08;;;;;;;3.80;2.27;;;35.70;15.60;;;;;;5079107;28;20829;-68
2023/05/10 12:32:41;;;;;;;3.20;2.63;;;35.10;15.60;;;;;;5079345;28;20454;-68
2023/05/10 12:35:09;;;;;;;3.13;2.40;;;35.20;16.00;;;;;;5078736;28;20450;-69
2023/05/10 12:37:38;;;;;;;4.80;2.60;;;35.40;15.30;;;;;;5078560;28;20465;-68
2023/05/10 12:40:09;;;;;;;2.37;2.17;;;35.30;15.00;;;;;;5078826;28;20434;-68
2023/05/10 12:42:36;;;;;;;5.23;2.73;;;35.40;14.90;;;;;;5079068;28;20856;-68
2023/05/10 12:45:03;;;;;;;2.60;2.40;;;34.80;13.60;;;;;;5078233;28;20568;-68
2023/05/10 12:47:32;;;;;;;2.77;2.47;;;34.20;14.10;;;;;;5077724;28;20561;-67
2023/05/10 12:49:59;;;;;;;2.57;2.30;;;33.60;14.80;;;;;;5078299;28;20801;-68
2023/05/10 12:52:26;;;;;;;10.90;2.47;;;33.20;15.30;;;;;;5077605;28;20476;-68